Time;durP1;ratioP1;P1;durP2;ratioP2;P2;SDS_P1;SDS_P2;PMS_P1;PMS_P2;Temp;Humidity;BMP_temperature;BMP_pressure;BME280_temperature;BME280_humidity;BME280_pressure;Samples;Min_cycle;Max_cycle;Signal;HPM_P1;HPM_P2
2022/04/19 00:01:00;;;;;;;2.95;0.80;;;;;;;20.80;36.34;101408.41;4179448;28;20040;-62
2022/04/19 00:03:04;;;;;;;;;;;;;;;20.93;36.56;101420.13;4184115;28;20048;-63
2022/04/19 00:05:09;;;;;;;5.68;1.13;;;;;;;20.99;36.31;101405.16;4181555;28;19916;-62
2022/04/19 00:07:13;;;;;;;3.88;0.93;;;;;;;20.99;36.23;101400.44;4184719;28;20110;-62
2022/04/19 00:09:17;;;;;;;5.40;0.90;;;;;;;20.99;36.76;101383.75;4177699;28;20048;-64
2022/04/19 00:11:18;;;;;;;4.82;1.10;;;;;;;21.00;36.92;101354.81;4178958;28;20109;-62
2022/04/19 00:13:22;;;;;;;2.83;0.80;;;;;;;21.00;36.84;101363.16;4183086;28;20052;-62
2022/04/19 00:15:28;;;;;;;3.30;0.75;;;;;;;21.00;36.80;101356.75;4178118;28;20086;-62
2022/04/19 00:17:30;;;;;;;12.00;1.35;;;;;;;21.01;36.71;101338.94;4181866;28;20045;-63
2022/04/19 00:19:31;;;;;;;6.38;0.82;;;;;;;20.89;36.77;101299.38;4179815;28;20071;-63
2022/04/19 00:21:33;;;;;;;2.97;0.90;;;;;;;20.91;36.58;101280.47;4176212;28;20041;-61
2022/04/19 00:23:34;;;;;;;3.10;0.70;;;;;;;20.98;37.18;101286.59;4164855;28;20034;-63
2022/04/19 00:25:36;;;;;;;11.30;1.45;;;;;;;21.00;36.78;101284.41;4164338;28;20049;-63
2022/04/19 00:27:37;;;;;;;7.40;1.10;;;;;;;21.02;36.71;101299.69;4164535;28;20451;-64
2022/04/19 00:29:42;;;;;;;3.33;1.10;;;;;;;20.96;36.87;101302.75;4164955;28;20045;-62
2022/04/19 00:31:43;;;;;;;5.07;1.00;;;;;;;21.04;37.06;101313.38;4165268;28;20099;-61
2022/04/19 00:33:45;;;;;;;3.78;1.05;;;;;;;21.04;36.92;101324.50;4164808;28;20037;-61
2022/04/19 00:35:49;;;;;;;6.25;1.20;;;;;;;21.05;37.57;101345.63;4164802;28;20074;-62
2022/04/19 00:37:53;;;;;;;4.13;1.40;;;;;;;21.09;37.68;101337.59;4165207;28;20045;-61
2022/04/19 00:39:58;;;;;;;2.92;0.80;;;;;;;21.00;37.57;101315.84;4177386;28;20294;-61
2022/04/19 00:41:59;;;;;;;3.10;1.30;;;;;;;21.10;38.02;101320.59;4181778;28;20102;-64
2022/04/19 00:44:04;;;;;;;4.72;1.60;;;;;;;21.11;38.22;101300.00;4181454;28;20044;-62
2022/04/19 00:46:08;;;;;;;3.88;2.53;;;;;;;21.12;37.49;101286.94;4181034;28;20029;-64
2022/04/19 00:48:10;;;;;;;5.45;1.40;;;;;;;21.09;38.24;101271.63;4181356;28;20090;-63
2022/04/19 00:50:12;;;;;;;6.00;1.60;;;;;;;21.12;37.64;101275.81;4181279;28;20041;-63
2022/04/19 00:52:13;;;;;;;4.05;1.20;;;;;;;21.08;37.64;101263.56;4181166;28;20102;-63
2022/04/19 00:54:17;;;;;;;5.03;2.03;;;;;;;21.13;38.30;101271.94;4180832;28;20045;-63
2022/04/19 00:56:19;;;;;;;3.55;1.90;;;;;;;21.14;38.47;101257.72;4179443;28;20098;-62
2022/04/19 00:58:20;;;;;;;5.65;1.17;;;;;;;21.14;37.89;101252.16;4181712;28;20041;-63
2022/04/19 01:00:22;;;;;;;9.23;1.40;;;;;;;21.14;37.74;101241.03;4181041;28;20044;-63
2022/04/19 01:02:29;;;;;;;7.68;1.58;;;;;;;21.14;37.91;101235.47;4180913;28;20056;-64
2022/04/19 01:04:34;;;;;;;7.53;1.63;;;;;;;20.89;38.36;101182.53;4185704;28;20041;-63
2022/04/19 01:06:35;;;;;;;2.20;1.35;;;;;;;21.14;38.41;101223.50;4181957;28;20159;-63
2022/04/19 01:08:38;;;;;;;4.18;1.40;;;;;;;21.16;38.38;101208.19;4180994;28;20098;-63
2022/04/19 01:10:42;;;;;;;5.38;1.52;;;;;;;20.83;38.07;101148.31;4180379;28;20438;-62
2022/04/19 01:15:06;;;;;;;4.57;1.38;;;;;;;21.10;38.34;101173.13;4180685;28;20093;-63
2022/04/19 01:17:08;;;;;;;3.42;1.45;;;;;;;21.17;38.62;101179.28;4181353;28;20098;-63
2022/04/19 01:19:16;;;;;;;3.22;1.38;;;;;;;21.17;38.63;101159.78;4180376;28;20098;-63
2022/04/19 01:21:17;;;;;;;2.55;1.50;;;;;;;21.18;38.42;101155.06;4175033;28;20053;-65
2022/04/19 01:23:20;;;;;;;5.20;1.25;;;;;;;21.18;38.62;101146.72;4187833;28;20078;-63
2022/04/19 01:25:21;;;;;;;3.88;1.10;;;;;;;21.17;38.88;101123.63;4179416;28;20103;-62
2022/04/19 01:27:22;;;;;;;6.85;1.40;;;;;;;21.16;38.82;101099.66;4180473;28;20048;-63
2022/04/19 01:29:25;;;;;;;6.30;1.52;;;;;;;21.13;39.22;101075.19;4170522;28;20075;-63
2022/04/19 01:31:39;;;;;;;7.88;1.60;;;;;;;21.14;39.00;101057.38;4164467;28;20072;-63
2022/04/19 01:33:40;;;;;;;11.27;1.30;;;;;;;21.01;38.95;101019.00;4164426;28;20080;-64
2022/04/19 01:35:49;;;;;;;5.60;1.20;;;;;;;21.13;39.21;101019.53;4178562;28;20455;-64
2022/04/19 01:37:51;;;;;;;7.15;1.20;;;;;;;21.12;39.23;101003.09;4180330;28;20103;-63
2022/04/19 01:42:18;;;;;;;12.57;1.23;;;;;;;21.13;39.23;100963.06;4173169;28;20091;-63
2022/04/19 01:44:20;;;;;;;5.65;1.48;;;;;;;21.12;39.50;100961.38;4180637;28;20468;-64
2022/04/19 01:46:23;;;;;;;4.80;1.27;;;;;;;21.12;39.21;100965.00;4169895;28;20090;-62
2022/04/19 01:48:24;;;;;;;5.45;1.27;;;;;;;21.11;39.45;100954.13;4164313;28;20482;-62
2022/04/19 01:50:27;;;;;;;6.72;1.40;;;;;;;21.10;39.04;100942.19;4166760;28;20107;-62
2022/04/19 01:52:28;;;;;;;3.78;1.00;;;;;;;21.08;39.24;100930.50;4172199;28;20420;-62
2022/04/19 01:54:30;;;;;;;8.20;1.25;;;;;;;21.11;39.07;100917.97;4167468;28;20041;-62
2022/04/19 01:56:32;;;;;;;15.68;1.80;;;;;;;21.11;39.45;100896.53;4167164;28;20087;-62
2022/04/19 01:58:33;;;;;;;8.18;1.60;;;;;;;21.09;39.41;100884.88;4170746;28;20106;-62
2022/04/19 02:00:37;;;;;;;14.45;1.98;;;;;;;21.10;39.17;100878.19;4180666;28;20431;-63
2022/04/19 02:02:39;;;;;;;13.63;2.83;;;;;;;21.07;39.11;100845.34;4178584;28;20094;-61
2022/04/19 02:04:40;;;;;;;17.30;2.13;;;;;;;21.10;38.99;100833.66;4183110;28;20091;-62
2022/04/19 02:06:45;;;;;;;10.07;1.67;;;;;;;21.06;38.89;100829.78;4183463;28;20041;-62
2022/04/19 02:08:46;;;;;;;8.27;1.83;;;;;;;21.05;39.11;100830.91;4182843;28;20040;-62
2022/04/19 02:10:48;;;;;;;12.35;1.65;;;;;;;21.03;38.57;100795.03;4183654;28;20447;-62
2022/04/19 02:12:50;;;;;;;5.68;1.10;;;;;;;21.00;38.67;100787.25;4183233;28;20841;-62
2022/04/19 02:14:51;;;;;;;10.55;2.58;;;;;;;21.00;38.97;100791.97;4182762;28;20044;-62
2022/04/19 02:16:53;;;;;;;7.28;1.40;;;;;;;20.55;38.57;100710.41;4183703;28;20045;-61
2022/04/19 02:18:54;;;;;;;8.20;1.30;;;;;;;20.95;38.89;100789.22;4183966;28;20037;-62
2022/04/19 02:20:58;;;;;;;5.47;1.02;;;;;;;20.94;38.71;100780.06;4183216;28;20044;-61
2022/04/19 02:23:01;;;;;;;7.00;1.42;;;;;;;20.98;38.81;100791.41;4183769;28;20476;-62
2022/04/19 02:25:02;;;;;;;6.40;1.27;;;;;;;20.96;38.57;100788.09;4182772;28;20041;-63
2022/04/19 02:27:05;;;;;;;4.00;1.02;;;;;;;20.95;38.77;100772.53;4170075;28;20049;-63
2022/04/19 02:29:06;;;;;;;6.22;1.10;;;;;;;20.95;38.52;100765.03;4177015;28;20053;-63
2022/04/19 02:31:08;;;;;;;9.77;1.35;;;;;;;20.92;38.44;100743.34;4174098;28;20441;-62
2022/04/19 02:33:10;;;;;;;18.05;2.10;;;;;;;20.94;38.88;100731.94;4167043;28;20480;-63
2022/04/19 02:35:17;;;;;;;11.38;1.35;;;;;;;20.75;38.73;100693.63;4182335;28;20045;-63
2022/04/19 02:37:19;;;;;;;9.35;1.20;;;;;;;20.75;38.63;100685.28;4182150;28;20126;-63
2022/04/19 02:39:23;;;;;;;8.02;1.15;;;;;;;20.88;38.77;100683.81;4182736;28;20480;-63
2022/04/19 02:41:24;;;;;;;7.78;1.15;;;;;;;20.90;38.74;100705.81;4183263;28;20037;-63
2022/04/19 02:43:30;;;;;;;4.75;1.52;;;;;;;20.90;38.43;100686.34;4175093;28;20103;-63
2022/04/19 02:45:34;;;;;;;4.68;1.10;;;;;;;20.90;38.83;100675.22;4175234;28;20041;-62
2022/04/19 02:47:35;;;;;;;4.47;0.80;;;;;;;20.91;38.88;100679.66;4175747;28;20053;-61
2022/04/19 02:49:39;;;;;;;4.57;0.95;;;;;;;20.91;38.50;100674.09;4183340;28;20071;-63
2022/04/19 02:51:40;;;;;;;5.32;0.82;;;;;;;20.93;38.40;100680.19;4181970;28;20443;-62
2022/04/19 02:53:44;;;;;;;4.45;1.02;;;;;;;20.92;38.79;100675.75;4180955;28;20098;-63
2022/04/19 02:55:46;;;;;;;5.53;0.68;;;;;;;20.91;38.57;100646.28;4184602;28;20099;-63
2022/04/19 02:57:47;;;;;;;2.53;1.38;;;;;;;20.89;38.37;100654.06;4183088;28;20434;-63
2022/04/19 02:59:48;;;;;;;2.58;0.90;;;;;;;20.91;38.59;100657.41;4180398;28;20082;-63
2022/04/19 03:01:50;;;;;;;4.93;1.10;;;;;;;20.90;38.63;100642.66;4180140;28;20037;-62
2022/04/19 03:03:51;;;;;;;3.60;0.85;;;;;;;20.83;38.39;100624.63;4183281;28;20091;-63
2022/04/19 03:05:53;;;;;;;4.13;1.00;;;;;;;20.84;38.44;100617.94;4182577;28;20037;-62
2022/04/19 03:07:54;;;;;;;3.45;1.10;;;;;;;20.89;38.25;100620.69;4182741;28;20094;-63
2022/04/19 03:09:56;;;;;;;2.83;0.80;;;;;;;20.88;38.56;100602.34;4183004;28;20075;-63
2022/04/19 03:11:57;;;;;;;4.55;1.00;;;;;;;20.88;38.56;100619.03;4182864;28;20052;-63
2022/04/19 03:13:59;;;;;;;4.60;0.90;;;;;;;20.88;38.50;100613.47;4183039;28;20036;-63
2022/04/19 03:16:00;;;;;;;6.53;0.77;;;;;;;20.69;38.37;100611.34;4179516;28;20095;-62
2022/04/19 03:18:03;;;;;;;2.70;0.70;;;;;;;20.88;38.42;100644.06;4176001;28;20103;-61
2022/04/19 03:20:08;;;;;;;1.10;0.70;;;;;;;20.81;38.65;100627.72;4170611;28;20037;-61
2022/04/19 03:22:09;;;;;;;6.13;0.88;;;;;;;20.89;38.59;100642.94;4183094;28;20045;-62
2022/04/19 03:29:08;;;;;;;3.50;0.90;;;;;;;20.89;38.45;100651.28;4186211;28;20118;-61
2022/04/19 03:31:09;;;;;;;0.93;0.40;;;;;;;20.85;38.47;100633.50;4168287;28;20045;-62
2022/04/19 03:33:16;;;;;;;5.45;1.02;;;;;;;20.91;38.32;100635.16;4177675;28;20078;-62
2022/04/19 03:35:17;;;;;;;4.07;0.93;;;;;;;20.93;38.50;100616.22;4182433;28;20087;-62
2022/04/19 03:37:19;;;;;;;1.40;0.70;;;;;;;20.91;38.33;100607.34;4182017;28;20033;-62
2022/04/19 03:39:20;;;;;;;2.65;0.60;;;;;;;20.78;38.33;100587.38;4182567;28;20086;-62
2022/04/19 03:41:24;;;;;;;4.45;0.80;;;;;;;20.90;38.41;100594.56;4181714;28;20435;-62
2022/04/19 03:43:31;;;;;;;3.38;1.00;;;;;;;20.88;38.44;100580.91;4182238;28;20537;-62
2022/04/19 03:45:33;;;;;;;1.65;0.88;;;;;;;20.89;38.54;100576.19;4172950;28;20543;-62
2022/04/19 03:47:34;;;;;;;3.58;1.10;;;;;;;20.89;38.42;100568.69;4175603;28;20477;-63
2022/04/19 03:49:43;;;;;;;1.23;0.85;;;;;;;20.90;38.57;100556.44;4182418;28;20550;-62
2022/04/19 03:51:46;;;;;;;4.47;1.08;;;;;;;20.89;38.26;100554.78;4179263;28;20025;-63
2022/04/19 03:53:52;;;;;;;3.85;1.42;;;;;;;20.90;38.54;100544.50;4173990;28;20110;-63
2022/04/19 03:55:54;;;;;;;5.57;1.20;;;;;;;20.81;38.84;100519.25;4166248;28;20107;-62
2022/04/19 03:57:55;;;;;;;5.90;1.45;;;;;;;20.92;38.63;100536.69;4165824;28;20045;-63
2022/04/19 03:59:56;;;;;;;5.95;1.60;;;;;;;20.90;38.84;100536.97;4165421;28;20060;-63
2022/04/19 04:01:58;;;;;;;3.85;1.35;;;;;;;20.90;39.13;100538.94;4165152;28;20103;-63
2022/04/19 04:03:59;;;;;;;4.53;1.27;;;;;;;20.89;39.00;100515.00;4182689;28;20036;-64
2022/04/19 04:06:01;;;;;;;5.00;1.50;;;;;;;20.91;39.19;100510.00;4182353;28;20037;-62
2022/04/19 04:08:02;;;;;;;6.07;1.40;;;;;;;20.92;39.17;100497.75;4180306;28;20443;-63
2022/04/19 04:10:04;;;;;;;8.88;1.75;;;;;;;20.93;38.85;100460.44;4181849;28;20102;-62
2022/04/19 04:12:14;;;;;;;9.68;2.05;;;;;;;20.79;39.12;100427.75;4183381;28;20032;-62
2022/04/19 04:14:16;;;;;;;12.18;1.60;;;;;;;20.91;39.06;100407.91;4173172;28;20080;-62
2022/04/19 04:16:17;;;;;;;11.63;2.30;;;;;;;20.89;39.14;100398.19;4165012;28;20091;-62
2022/04/19 04:18:18;;;;;;;9.48;2.00;;;;;;;20.91;38.97;100405.13;4165264;28;20056;-61
2022/04/19 04:20:20;;;;;;;8.85;2.00;;;;;;;20.91;39.36;100413.47;4169702;28;20033;-63
2022/04/19 04:22:24;;;;;;;8.30;2.08;;;;;;;20.92;39.49;100403.19;4175317;28;20107;-62
2022/04/19 04:24:26;;;;;;;6.28;1.75;;;;;;;20.91;39.43;100396.78;4171751;28;20071;-62
2022/04/19 04:26:30;;;;;;;8.60;1.40;;;;;;;20.92;39.41;100378.97;4182446;28;20434;-62
2022/04/19 04:28:31;;;;;;;5.88;1.70;;;;;;;20.91;39.51;100368.16;4173085;28;20034;-62
2022/04/19 04:30:35;;;;;;;7.70;1.50;;;;;;;20.90;39.19;100364.53;4173372;28;20365;-62
2022/04/19 04:32:37;;;;;;;5.55;1.48;;;;;;;20.76;39.30;100325.47;4175003;28;20655;-62
2022/04/19 04:34:41;;;;;;;8.93;1.20;;;;;;;20.91;39.46;100330.03;4172453;28;20049;-62
2022/04/19 04:36:45;;;;;;;4.75;1.42;;;;;;;20.87;39.33;100319.78;4172222;28;20049;-62
2022/04/19 04:38:47;;;;;;;9.52;1.63;;;;;;;20.92;39.05;100328.06;4178516;28;20126;-62
2022/04/19 04:40:48;;;;;;;8.48;1.52;;;;;;;20.92;39.02;100325.31;4180596;28;20107;-62
2022/04/19 04:42:49;;;;;;;9.38;1.40;;;;;;;20.92;39.46;100331.69;4169928;28;20485;-61
2022/04/19 04:44:50;;;;;;;5.53;1.40;;;;;;;20.76;39.58;100303.25;4164739;28;20041;-62
2022/04/19 04:51:31;;;;;;;8.02;0.95;;;;;;;20.88;39.07;100310.31;4164923;28;20099;-62
2022/04/19 04:53:32;;;;;;;5.25;1.25;;;;;;;20.92;38.98;100305.84;4184143;28;20142;-62
2022/04/19 04:55:34;;;;;;;6.72;1.30;;;;;;;20.91;39.39;100301.41;4173786;28;20038;-62
2022/04/19 04:57:35;;;;;;;10.10;1.95;;;;;;;20.81;39.16;100269.81;4180938;28;20021;-62
2022/04/19 04:59:37;;;;;;;6.18;1.23;;;;;;;20.92;39.27;100278.03;4180073;28;20044;-62
2022/04/19 05:01:39;;;;;;;5.38;0.93;;;;;;;20.92;39.35;100267.72;4177499;28;20038;-62
2022/04/19 05:03:40;;;;;;;8.38;1.05;;;;;;;20.92;39.38;100264.94;4180548;28;20032;-62
2022/04/19 05:05:41;;;;;;;7.55;1.45;;;;;;;20.91;39.13;100262.47;4180447;28;20040;-62
2022/04/19 05:07:43;;;;;;;4.38;0.90;;;;;;;20.79;38.94;100233.09;4179690;28;20118;-62
2022/04/19 05:09:45;;;;;;;5.72;1.20;;;;;;;20.86;38.90;100237.50;4181325;28;20033;-62
2022/04/19 05:11:46;;;;;;;7.07;0.85;;;;;;;20.86;38.94;100231.94;4180708;28;20033;-63
2022/04/19 05:13:47;;;;;;;6.13;1.10;;;;;;;20.86;39.24;100226.38;4181158;28;20098;-63
2022/04/19 05:15:52;;;;;;;3.17;0.93;;;;;;;20.68;38.99;100184.31;4180935;28;20546;-62
2022/04/19 05:17:53;;;;;;;1.77;0.70;;;;;;;20.71;39.07;100189.31;4184301;28;20099;-62
2022/04/19 05:19:57;;;;;;;4.78;0.95;;;;;;;20.88;38.59;100213.00;4180437;28;20037;-62
2022/04/19 05:21:59;;;;;;;6.97;1.27;;;;;;;20.88;38.73;100218.56;4184867;28;20430;-62
2022/04/19 05:24:00;;;;;;;5.25;1.02;;;;;;;20.89;38.65;100211.84;4194327;28;20092;-61
2022/04/19 05:26:01;;;;;;;2.50;0.85;;;;;;;20.88;38.81;100213.00;4170109;28;20554;-62
2022/04/19 05:28:03;;;;;;;9.02;1.35;;;;;;;20.88;38.72;100218.56;4171641;28;20053;-62
2022/04/19 05:30:05;;;;;;;2.33;0.73;;;;;;;20.87;38.85;100222.47;4178809;28;20037;-62
2022/04/19 05:32:07;;;;;;;5.43;1.15;;;;;;;20.86;38.91;100232.75;4169126;28;20115;-62
2022/04/19 05:34:11;;;;;;;3.70;1.40;;;;;;;20.85;38.79;100216.34;4168055;28;20567;-61
2022/04/19 05:36:15;;;;;;;3.92;1.10;;;;;;;20.85;38.49;100202.44;4182050;28;20110;-62
2022/04/19 05:38:17;;;;;;;6.47;0.90;;;;;;;20.84;38.41;100195.25;4183530;28;20099;-62
2022/04/19 05:40:18;;;;;;;7.13;0.90;;;;;;;20.84;38.67;100200.81;4183379;28;20178;-62
2022/04/19 05:42:25;;;;;;;5.72;0.98;;;;;;;20.84;38.40;100200.81;4182713;28;20033;-62
2022/04/19 05:44:29;;;;;;;5.18;0.75;;;;;;;20.84;38.28;100181.34;4169624;28;20087;-62
2022/04/19 05:46:30;;;;;;;4.35;1.02;;;;;;;20.85;38.45;100188.53;4169996;28;20111;-62
2022/04/19 05:48:32;;;;;;;2.33;0.68;;;;;;;20.69;38.64;100149.84;4170225;28;20087;-62
2022/04/19 05:50:39;;;;;;;3.33;0.70;;;;;;;20.66;38.43;100155.97;4178143;28;20435;-62
2022/04/19 05:52:40;;;;;;;2.45;1.05;;;;;;;20.84;38.62;100184.94;4182158;28;20049;-62
2022/04/19 05:54:42;;;;;;;1.70;0.60;;;;;;;20.65;38.35;100146.00;4167017;28;20041;-63
2022/04/19 05:56:46;;;;;;;3.03;0.63;;;;;;;20.81;38.63;100178.03;4175535;28;20029;-62
2022/04/19 05:58:47;;;;;;;2.05;0.52;;;;;;;20.83;38.15;100179.69;4175750;28;20053;-63
2022/04/19 06:00:48;;;;;;;3.63;1.02;;;;;;;20.73;38.45;100158.41;4169400;28;20095;-62
2022/04/19 06:05:10;;;;;;;1.85;0.95;;;;;;;20.77;38.37;100145.56;4179416;28;20091;-63
2022/04/19 06:07:12;;;;;;;2.75;0.88;;;;;;;20.84;38.41;100142.41;4170950;28;20103;-63
2022/04/19 06:09:16;;;;;;;2.10;0.60;;;;;;;20.86;38.43;100154.91;4177838;28;20103;-63
2022/04/19 06:11:17;;;;;;;0.88;0.38;;;;;;;20.87;38.31;100145.44;4167244;28;20045;-62
2022/04/19 06:13:22;;;;;;;1.38;0.40;;;;;;;20.89;37.93;100145.13;4176743;28;20102;-62
2022/04/19 06:15:23;;;;;;;3.90;1.00;;;;;;;20.89;38.03;100140.41;4183235;28;20036;-63
2022/04/19 06:17:29;;;;;;;2.38;0.50;;;;;;;20.83;38.01;100129.63;4186038;28;20044;-63
2022/04/19 06:19:31;;;;;;;0.55;0.30;;;;;;;20.90;38.04;100127.31;4183734;28;20037;-63
2022/04/19 06:21:35;;;;;;;1.58;0.40;;;;;;;20.89;38.08;100120.09;4182312;28;20430;-62
2022/04/19 06:23:36;;;;;;;1.40;0.50;;;;;;;20.93;38.05;100127.53;4184467;28;20098;-62
2022/04/19 06:25:38;;;;;;;1.48;0.50;;;;;;;20.94;38.18;100137.53;4183647;28;20473;-62
2022/04/19 06:27:39;;;;;;;0.88;0.40;;;;;;;20.96;38.30;100131.69;4176489;28;20095;-62
2022/04/19 06:29:40;;;;;;;2.25;0.50;;;;;;;20.95;38.22;100136.41;4185297;28;20090;-61
2022/04/19 06:31:46;;;;;;;4.07;0.60;;;;;;;20.96;38.01;100132.50;4179885;28;20087;-60
2022/04/19 06:33:47;;;;;;;;;;;;;;;20.96;38.09;100128.91;4172031;28;20092;-61
2022/04/19 06:35:48;;;;;;;2.05;0.40;;;;;;;21.02;38.01;100138.81;4169194;28;20375;-61
2022/04/19 06:37:50;;;;;;;0.63;0.32;;;;;;;21.01;37.75;100134.38;4167720;28;20046;-62
2022/04/19 06:39:51;;;;;;;1.38;0.35;;;;;;;21.02;38.14;100124.91;4180940;28;20434;-63
2022/04/19 06:41:54;;;;;;;2.72;0.38;;;;;;;20.98;38.08;100110.78;4168491;28;20442;-61
2022/04/19 06:43:58;;;;;;;1.42;0.50;;;;;;;21.02;38.06;100124.91;4166519;28;20091;-61
2022/04/19 06:45:59;;;;;;;1.17;0.40;;;;;;;21.01;37.83;100114.91;4166670;28;20041;-62
2022/04/19 06:48:05;;;;;;;2.38;0.30;;;;;;;21.01;37.81;100112.94;4180696;28;20439;-62
2022/04/19 06:50:07;;;;;;;1.33;0.30;;;;;;;20.99;38.02;100108.84;4183487;28;20469;-62
2022/04/19 06:52:09;;;;;;;1.33;0.43;;;;;;;21.01;38.15;100112.13;4182487;28;20099;-62
2022/04/19 06:54:12;;;;;;;1.90;0.50;;;;;;;20.95;37.91;100107.78;4183707;28;20041;-62
2022/04/19 06:56:13;;;;;;;1.27;0.50;;;;;;;21.02;38.14;100119.34;4178038;28;20049;-62
2022/04/19 06:58:17;;;;;;;0.45;0.30;;;;;;;21.02;37.80;100119.34;4182285;28;20124;-62
2022/04/19 07:00:19;;;;;;;1.97;0.30;;;;;;;21.03;38.12;100127.41;4182555;28;20045;-62
2022/04/19 07:02:20;;;;;;;1.55;0.60;;;;;;;21.02;37.65;100120.16;4181529;28;20332;-62
2022/04/19 07:04:22;;;;;;;1.65;0.30;;;;;;;21.03;37.92;100126.56;4166708;28;20103;-62
2022/04/19 07:06:23;;;;;;;0.88;0.20;;;;;;;21.04;37.94;100133.78;4181056;28;20106;-61
2022/04/19 07:08:27;;;;;;;1.83;0.30;;;;;;;21.04;37.84;100133.78;4167517;28;20042;-61
2022/04/19 07:10:30;;;;;;;0.50;0.30;;;;;;;20.84;37.69;100100.69;4182413;28;20090;-62
2022/04/19 07:12:31;;;;;;;1.20;0.35;;;;;;;21.03;37.63;100127.41;4181847;28;20042;-62
2022/04/19 07:14:33;;;;;;;0.52;0.20;;;;;;;21.04;37.73;100133.78;4182811;28;20095;-63
2022/04/19 07:16:34;;;;;;;0.70;0.30;;;;;;;21.04;38.04;100136.56;4181979;28;20078;-62
2022/04/19 07:18:41;;;;;;;0.90;0.40;;;;;;;21.04;37.70;100145.72;4175642;28;20485;-63
2022/04/19 07:27:43;;;;;;;0.50;0.20;;;;;;;21.02;37.68;100141.59;4167944;28;20079;-61
2022/04/19 07:29:44;;;;;;;0.93;0.35;;;;;;;21.05;37.85;100146.56;4167196;28;20049;-61
2022/04/19 07:31:47;;;;;;;1.23;0.22;;;;;;;21.04;37.70;100134.59;4169998;28;20053;-62
2022/04/19 07:33:48;;;;;;;0.85;0.30;;;;;;;21.04;37.73;100154.09;4183068;28;20040;-61
2022/04/19 07:35:52;;;;;;;1.85;0.35;;;;;;;20.97;37.94;100138.88;4179970;28;20049;-61
2022/04/19 07:37:54;;;;;;;2.33;0.30;;;;;;;21.00;37.96;100147.47;4179248;28;20091;-61
2022/04/19 07:39:55;;;;;;;0.85;0.20;;;;;;;21.05;37.66;100164.06;4180808;28;20487;-61
2022/04/19 07:42:00;;;;;;;0.93;0.30;;;;;;;21.05;38.04;100177.16;4177298;28;20140;-61
2022/04/19 07:44:08;;;;;;;;;;;;;;;21.02;37.82;100178.56;4178998;28;20041;-61
2022/04/19 07:46:10;;;;;;;1.13;0.20;;;;;;;21.09;37.70;100186.56;4166833;28;19978;-61
2022/04/19 07:48:14;;;;;;;0.35;0.20;;;;;;;21.09;38.01;100192.13;4179079;28;20033;-63
2022/04/19 07:50:16;;;;;;;2.60;0.82;;;;;;;21.09;37.62;100197.69;4176673;28;20045;-63
2022/04/19 07:52:17;;;;;;;0.90;0.20;;;;;;;21.05;37.85;100207.75;4165620;28;20139;-63
2022/04/19 07:54:18;;;;;;;0.65;0.20;;;;;;;21.08;37.55;100229.41;4166242;28;20037;-63
2022/04/19 07:56:20;;;;;;;0.40;0.20;;;;;;;20.64;37.82;100147.13;4178236;28;20036;-63
2022/04/19 07:58:21;;;;;;;1.13;0.20;;;;;;;21.07;37.92;100230.53;4181216;28;20106;-63
2022/04/19 08:00:27;;;;;;;0.32;0.30;;;;;;;20.92;38.00;100225.19;4175976;28;20118;-63
2022/04/19 08:02:30;;;;;;;0.82;0.30;;;;;;;21.05;37.93;100236.41;4169821;28;20447;-63
2022/04/19 08:04:32;;;;;;;1.40;0.20;;;;;;;21.08;37.74;100245.28;4170590;28;20033;-62
2022/04/19 08:06:33;;;;;;;0.60;0.60;;;;;;;21.06;37.62;100253.91;4176227;28;20048;-62
2022/04/19 08:08:36;;;;;;;0.60;0.20;;;;;;;21.08;37.62;100250.84;4179788;28;20106;-62
2022/04/19 08:10:37;;;;;;;0.20;0.20;;;;;;;21.07;37.82;100266.69;4167711;28;20021;-62
2022/04/19 08:12:39;;;;;;;0.65;0.20;;;;;;;21.06;37.62;100278.94;4175655;28;20476;-62
2022/04/19 08:14:42;;;;;;;1.10;0.20;;;;;;;21.05;37.43;100278.13;4169545;28;20553;-62
2022/04/19 08:16:44;;;;;;;0.50;0.20;;;;;;;21.05;37.80;100272.56;4175217;28;20438;-62
2022/04/19 08:18:45;;;;;;;0.52;0.30;;;;;;;20.96;37.77;100266.00;4184779;28;20037;-62
2022/04/19 08:20:48;;;;;;;0.32;0.15;;;;;;;21.03;37.86;100282.34;4166923;28;20042;-62
2022/04/19 08:22:53;;;;;;;0.32;0.10;;;;;;;21.04;37.80;100284.81;4169012;28;20091;-62
2022/04/19 08:24:54;;;;;;;0.10;0.10;;;;;;;21.01;37.44;100279.84;4177480;28;20041;-62
2022/04/19 08:26:58;;;;;;;0.35;0.20;;;;;;;21.04;37.50;100284.00;4181399;28;20083;-61
2022/04/19 08:28:59;;;;;;;0.13;0.10;;;;;;;21.00;37.44;100291.28;4172307;28;20068;-62
2022/04/19 08:31:01;;;;;;;0.22;0.17;;;;;;;21.03;37.67;100290.69;4173702;28;20102;-62
2022/04/19 08:33:05;;;;;;;0.60;0.30;;;;;;;20.94;37.73;100287.72;4172839;28;20112;-62
2022/04/19 08:35:07;;;;;;;0.28;0.10;;;;;;;21.03;37.74;100305.44;4180413;28;20041;-62
2022/04/19 08:37:09;;;;;;;0.43;0.20;;;;;;;21.00;37.39;100300.44;4181548;28;20103;-62
2022/04/19 08:39:11;;;;;;;0.47;0.22;;;;;;;20.92;37.46;100292.75;4180996;28;20102;-62
2022/04/19 08:41:22;;;;;;;0.20;0.20;;;;;;;21.01;37.68;100317.97;4181405;28;20037;-62
2022/04/19 08:43:24;;;;;;;0.73;0.30;;;;;;;21.00;37.50;100311.56;4181517;28;20041;-62
2022/04/19 08:45:26;;;;;;;0.10;0.10;;;;;;;21.02;37.69;100314.03;4173821;28;20092;-62
2022/04/19 08:47:31;;;;;;;0.20;0.20;;;;;;;21.01;37.72;100323.53;4163709;28;20562;-62
2022/04/19 08:49:39;;;;;;;0.20;0.10;;;;;;;20.99;37.56;100339.69;4170229;28;20095;-62
2022/04/19 08:51:40;;;;;;;0.10;0.10;;;;;;;20.91;37.50;100340.34;4177733;28;20040;-63
2022/04/19 08:58:20;;;;;;;0.20;0.20;;;;;;;20.99;37.33;100376.69;4169283;28;20094;-62
2022/04/19 09:00:23;;;;;;;0.30;0.10;;;;;;;20.99;37.72;100359.16;4177838;28;20084;-62
2022/04/19 09:02:27;;;;;;;0.20;0.10;;;;;;;21.00;37.58;100383.06;4165637;28;20115;-63
2022/04/19 09:04:35;;;;;;;0.10;0.10;;;;;;;20.80;37.27;100353.50;4165067;28;20075;-62
2022/04/19 09:06:53;;;;;;;0.35;0.10;;;;;;;20.90;37.33;100372.88;4173819;28;20041;-62
2022/04/19 09:09:10;;;;;;;0.10;0.10;;;;;;;20.97;37.61;100383.66;4171953;28;20091;-62
2022/04/19 09:11:14;;;;;;;0.15;0.10;;;;;;;20.98;37.34;100390.88;4173724;28;20041;-62
2022/04/19 09:13:23;;;;;;;1.08;0.30;;;;;;;20.91;37.25;100384.84;4169242;28;20103;-62
2022/04/19 09:15:37;;;;;;;0.32;0.20;;;;;;;20.96;37.34;100398.69;4164813;28;20033;-62
2022/04/19 09:17:40;;;;;;;0.63;0.10;;;;;;;20.98;37.67;100394.50;4181610;28;20049;-62
2022/04/19 09:19:42;;;;;;;0.10;0.10;;;;;;;20.97;37.63;100392.81;4180912;28;20485;-62
2022/04/19 09:21:43;;;;;;;2.60;0.20;;;;;;;20.93;37.19;100397.31;4180323;28;20045;-62
2022/04/19 09:23:53;;;;;;;0.57;0.10;;;;;;;20.95;37.46;100397.84;4175019;28;20036;-62
2022/04/19 09:26:04;;;;;;;1.33;0.10;;;;;;;20.93;37.21;100400.09;4179719;28;20067;-62
2022/04/19 09:28:25;;;;;;;0.47;0.20;;;;;;;20.88;37.24;100399.31;4179512;28;20056;-63
2022/04/19 09:30:34;;;;;;;0.80;0.20;;;;;;;20.96;37.23;100416.19;4172676;28;20400;-61
2022/04/19 09:32:35;;;;;;;0.57;0.30;;;;;;;20.89;37.56;100396.25;4164742;28;20034;-61
2022/04/19 09:34:37;;;;;;;0.17;0.10;;;;;;;20.96;37.23;100418.16;4164661;28;20041;-61
2022/04/19 09:36:41;;;;;;;0.13;0.10;;;;;;;20.95;37.22;100419.28;4164226;28;20114;-61
2022/04/19 09:38:47;;;;;;;0.20;0.17;;;;;;;20.94;37.11;100434.31;4173220;28;20037;-61
2022/04/19 09:40:52;;;;;;;1.48;0.20;;;;;;;20.93;37.55;100432.63;4181268;28;20458;-62
2022/04/19 09:42:54;;;;;;;;;;;;;;;20.93;37.20;100432.63;4168900;28;20038;-61
2022/04/19 09:44:56;;;;;;;0.10;0.10;;;;;;;20.94;37.33;100423.19;4180721;28;20364;-63
2022/04/19 09:47:09;;;;;;;0.10;0.10;;;;;;;20.95;37.40;100428.47;4180728;28;20099;-61
2022/04/19 09:49:10;;;;;;;0.57;0.10;;;;;;;20.95;37.18;100419.28;4180218;28;20041;-62
2022/04/19 09:51:13;;;;;;;0.40;0.10;;;;;;;20.89;37.12;100417.66;4180798;28;20045;-63
2022/04/19 09:53:23;;;;;;;0.17;0.10;;;;;;;20.93;37.40;100432.63;4174354;28;20076;-63
2022/04/19 09:55:25;;;;;;;0.30;0.20;;;;;;;20.93;37.14;100433.47;4163994;28;20091;-63
2022/04/19 09:57:31;;;;;;;0.43;0.15;;;;;;;20.92;37.33;100431.00;4174368;28;20052;-62
2022/04/19 09:59:36;;;;;;;0.40;0.10;;;;;;;20.89;37.41;100426.00;4165534;28;20447;-62
2022/04/19 10:08:39;;;;;;;0.25;0.20;;;;;;;20.78;37.33;100445.56;4175675;28;20087;-62